This is the latest recevied weather packets stored in our database for station/object IZ3TCG-13. If no packets are shown the sender has not sent any weather packets the latest 10 day(s).
| Time | Temp. | Humidity | Pressure | Rain* | Wind** | Luminosity | Snow |
|---|---|---|---|---|---|---|---|
| 1777450563 | 21.11° C | 59% | 1013.9 hPa | 0 mm | - | - | - |
| 1777450324 | 20.56° C | 59% | 1014.1 hPa | 0 mm | - | - | - |
| 1777449843 | 20° C | 60% | 1014 hPa | 0 mm | - | - | - |
| 1777448404 | 18.33° C | 66% | 1013.8 hPa | 0 mm | - | - | - |
| 1777445043 | 17.78° C | 71% | 1013.5 hPa | 0 mm | - | - | - |
| 1777442644 | 16.67° C | 75% | 1013.1 hPa | 0 mm | - | - | - |
| 1777442165 | 16.67° C | 75% | 1013.1 hPa | 0 mm | - | - | - |
| 1777441443 | 16.11° C | 78% | 1013 hPa | 0 mm | - | - | - |
| 1777440004 | 15.56° C | 81% | 1013.1 hPa | 0 mm | - | - | - |
| 1777437604 | 15° C | 82% | 1013.1 hPa | 0 mm | - | - | - |
| 1777436403 | 15° C | 82% | 1013.1 hPa | 0 mm | - | - | - |
| 1777433764 | 15° C | 82% | 1013 hPa | 0 mm | - | - | - |
| 1777431843 | 15.56° C | 80% | 1013 hPa | 0 mm | - | - | - |
| 1777430644 | 15.56° C | 79% | 1012.8 hPa | 0 mm | - | - | - |
| 1777428724 | 16.11° C | 78% | 1012.8 hPa | 0 mm | - | - | - |
| 1777428484 | 16.11° C | 78% | 1013.2 hPa | 0 mm | - | - | - |
| 1777428004 | 16.11° C | 78% | 1012.9 hPa | 0 mm | - | - | - |
| 1777427419 | 16.11° C | 78% | 1013 hPa | 0 mm | - | - | - |
| 1777426564 | 16.11° C | 77% | 1012.8 hPa | 0 mm | - | - | - |
| 1777426325 | 16.11° C | 77% | 1012.7 hPa | 0 mm | - | - | - |
| 1777426084 | 16.11° C | 77% | 1013.1 hPa | 0 mm | - | - | - |
| 1777422004 | 16.11° C | 76% | 1012.9 hPa | 0 mm | - | - | - |
| 1777420696 | 16.67° C | 77% | 1013.1 hPa | 0 mm | - | - | - |
| 1777420083 | 16.67° C | 77% | 1013 hPa | 0 mm | - | - | - |
| 1777417924 | 16.67° C | 81% | 1013 hPa | 0 mm | - | - | - |
* Rain latest hour (hover to see other rain measurements)
** Current wind speed in m/s (hover to see current wind gust speed)